sensor_id;sensor_type;location;lat;lon;timestamp;P1;durP1;ratioP1;P2;durP2;ratioP2
61905;SDS011;47863;55.766;37.672;2024-03-02T00:00:15;17.60;;;8.48;;
61905;SDS011;47863;55.766;37.672;2024-03-02T00:02:41;34.90;;;15.50;;
61905;SDS011;47863;55.766;37.672;2024-03-02T00:05:10;22.85;;;10.35;;
61905;SDS011;47863;55.766;37.672;2024-03-02T00:07:36;24.33;;;11.90;;
61905;SDS011;47863;55.766;37.672;2024-03-02T00:10:05;25.35;;;11.45;;
61905;SDS011;47863;55.766;37.672;2024-03-02T00:12:36;18.45;;;9.50;;
61905;SDS011;47863;55.766;37.672;2024-03-02T00:15:07;20.20;;;8.90;;
61905;SDS011;47863;55.766;37.672;2024-03-02T00:17:43;17.83;;;8.30;;
61905;SDS011;47863;55.766;37.672;2024-03-02T00:20:21;17.42;;;8.93;;
61905;SDS011;47863;55.766;37.672;2024-03-02T00:22:51;23.80;;;9.05;;
61905;SDS011;47863;55.766;37.672;2024-03-02T00:25:16;32.70;;;13.10;;
61905;SDS011;47863;55.766;37.672;2024-03-02T00:27:47;24.00;;;10.55;;
61905;SDS011;47863;55.766;37.672;2024-03-02T00:33:15;32.67;;;13.38;;
61905;SDS011;47863;55.766;37.672;2024-03-02T00:35:43;30.20;;;12.15;;
61905;SDS011;47863;55.766;37.672;2024-03-02T00:38:10;26.67;;;11.05;;
61905;SDS011;47863;55.766;37.672;2024-03-02T00:40:36;37.50;;;15.18;;
61905;SDS011;47863;55.766;37.672;2024-03-02T00:43:01;19.20;;;9.75;;
61905;SDS011;47863;55.766;37.672;2024-03-02T00:45:28;27.30;;;12.93;;
61905;SDS011;47863;55.766;37.672;2024-03-02T00:47:54;29.88;;;12.20;;
61905;SDS011;47863;55.766;37.672;2024-03-02T00:50:19;29.33;;;11.73;;
61905;SDS011;47863;55.766;37.672;2024-03-02T00:52:46;29.73;;;11.88;;
61905;SDS011;47863;55.766;37.672;2024-03-02T00:55:13;21.02;;;9.50;;
61905;SDS011;47863;55.766;37.672;2024-03-02T00:57:39;21.92;;;10.27;;
61905;SDS011;47863;55.766;37.672;2024-03-02T01:00:06;35.53;;;13.80;;
61905;SDS011;47863;55.766;37.672;2024-03-02T01:02:35;33.67;;;13.95;;
61905;SDS011;47863;55.766;37.672;2024-03-02T01:05:01;35.45;;;15.15;;
61905;SDS011;47863;55.766;37.672;2024-03-02T01:07:28;20.52;;;9.30;;
61905;SDS011;47863;55.766;37.672;2024-03-02T01:09:54;30.60;;;11.48;;
61905;SDS011;47863;55.766;37.672;2024-03-02T01:12:19;24.33;;;10.75;;
61905;SDS011;47863;55.766;37.672;2024-03-02T01:14:45;29.92;;;12.02;;
61905;SDS011;47863;55.766;37.672;2024-03-02T01:17:10;28.55;;;12.82;;
61905;SDS011;47863;55.766;37.672;2024-03-02T01:19:36;30.98;;;13.60;;
61905;SDS011;47863;55.766;37.672;2024-03-02T01:22:03;27.98;;;12.50;;
61905;SDS011;47863;55.766;37.672;2024-03-02T01:24:28;27.02;;;12.02;;
61905;SDS011;47863;55.766;37.672;2024-03-02T01:26:54;33.47;;;13.40;;
61905;SDS011;47863;55.766;37.672;2024-03-02T01:29:20;23.13;;;10.98;;
61905;SDS011;47863;55.766;37.672;2024-03-02T01:31:45;17.05;;;8.75;;
61905;SDS011;47863;55.766;37.672;2024-03-02T01:34:11;24.02;;;10.30;;
61905;SDS011;47863;55.766;37.672;2024-03-02T01:36:37;24.48;;;10.52;;
61905;SDS011;47863;55.766;37.672;2024-03-02T01:39:03;22.20;;;9.75;;
61905;SDS011;47863;55.766;37.672;2024-03-02T01:41:29;24.52;;;10.40;;
61905;SDS011;47863;55.766;37.672;2024-03-02T01:43:54;22.75;;;9.80;;
61905;SDS011;47863;55.766;37.672;2024-03-02T01:46:20;24.95;;;10.82;;
61905;SDS011;47863;55.766;37.672;2024-03-02T01:48:46;21.52;;;10.57;;
61905;SDS011;47863;55.766;37.672;2024-03-02T01:51:12;21.15;;;10.23;;
61905;SDS011;47863;55.766;37.672;2024-03-02T01:53:38;26.73;;;11.23;;
61905;SDS011;47863;55.766;37.672;2024-03-02T01:56:03;22.80;;;10.35;;
61905;SDS011;47863;55.766;37.672;2024-03-02T01:58:29;29.08;;;12.52;;
61905;SDS011;47863;55.766;37.672;2024-03-02T02:00:55;27.83;;;12.32;;
61905;SDS011;47863;55.766;37.672;2024-03-02T02:03:20;24.90;;;10.73;;
61905;SDS011;47863;55.766;37.672;2024-03-02T02:05:46;24.10;;;10.52;;
61905;SDS011;47863;55.766;37.672;2024-03-02T02:08:13;26.95;;;13.40;;
61905;SDS011;47863;55.766;37.672;2024-03-02T02:10:38;31.20;;;12.88;;
61905;SDS011;47863;55.766;37.672;2024-03-02T02:13:04;25.63;;;11.98;;
61905;SDS011;47863;55.766;37.672;2024-03-02T02:15:30;26.80;;;11.75;;
61905;SDS011;47863;55.766;37.672;2024-03-02T02:17:57;25.38;;;11.32;;
61905;SDS011;47863;55.766;37.672;2024-03-02T02:20:43;25.00;;;12.25;;
61905;SDS011;47863;55.766;37.672;2024-03-02T02:23:09;24.33;;;11.25;;
61905;SDS011;47863;55.766;37.672;2024-03-02T02:25:35;25.15;;;11.20;;
61905;SDS011;47863;55.766;37.672;2024-03-02T02:28:01;25.48;;;10.73;;
61905;SDS011;47863;55.766;37.672;2024-03-02T02:30:28;23.38;;;11.18;;
61905;SDS011;47863;55.766;37.672;2024-03-02T02:32:55;29.33;;;12.75;;
61905;SDS011;47863;55.766;37.672;2024-03-02T02:35:22;31.30;;;14.63;;
61905;SDS011;47863;55.766;37.672;2024-03-02T02:37:49;32.08;;;14.85;;
61905;SDS011;47863;55.766;37.672;2024-03-02T02:40:16;26.63;;;11.48;;
61905;SDS011;47863;55.766;37.672;2024-03-02T02:42:44;26.60;;;13.45;;
61905;SDS011;47863;55.766;37.672;2024-03-02T02:45:09;30.38;;;13.15;;
61905;SDS011;47863;55.766;37.672;2024-03-02T02:47:36;26.98;;;12.38;;
61905;SDS011;47863;55.766;37.672;2024-03-02T02:50:02;30.25;;;13.10;;
61905;SDS011;47863;55.766;37.672;2024-03-02T02:52:33;22.85;;;11.05;;
61905;SDS011;47863;55.766;37.672;2024-03-02T02:57:28;24.73;;;11.00;;
61905;SDS011;47863;55.766;37.672;2024-03-02T02:59:55;18.70;;;9.40;;
61905;SDS011;47863;55.766;37.672;2024-03-02T03:02:21;20.95;;;10.30;;
61905;SDS011;47863;55.766;37.672;2024-03-02T03:04:46;34.67;;;14.35;;
61905;SDS011;47863;55.766;37.672;2024-03-02T03:07:12;32.17;;;13.63;;
61905;SDS011;47863;55.766;37.672;2024-03-02T03:09:37;22.65;;;10.82;;
61905;SDS011;47863;55.766;37.672;2024-03-02T03:12:04;25.05;;;12.02;;
61905;SDS011;47863;55.766;37.672;2024-03-02T03:14:30;25.98;;;12.13;;
61905;SDS011;47863;55.766;37.672;2024-03-02T03:16:56;40.05;;;16.77;;
61905;SDS011;47863;55.766;37.672;2024-03-02T03:19:21;34.20;;;14.93;;
61905;SDS011;47863;55.766;37.672;2024-03-02T03:21:47;22.02;;;10.32;;
61905;SDS011;47863;55.766;37.672;2024-03-02T03:24:12;31.73;;;13.48;;
61905;SDS011;47863;55.766;37.672;2024-03-02T03:26:38;38.55;;;15.18;;
61905;SDS011;47863;55.766;37.672;2024-03-02T03:29:04;28.65;;;12.30;;
61905;SDS011;47863;55.766;37.672;2024-03-02T03:31:30;39.03;;;15.38;;
61905;SDS011;47863;55.766;37.672;2024-03-02T03:33:55;28.33;;;11.52;;
61905;SDS011;47863;55.766;37.672;2024-03-02T03:36:21;31.25;;;11.48;;
61905;SDS011;47863;55.766;37.672;2024-03-02T03:38:46;23.63;;;10.73;;
61905;SDS011;47863;55.766;37.672;2024-03-02T03:41:13;43.60;;;17.52;;
61905;SDS011;47863;55.766;37.672;2024-03-02T03:43:39;28.75;;;13.18;;
61905;SDS011;47863;55.766;37.672;2024-03-02T03:46:05;23.17;;;11.35;;
61905;SDS011;47863;55.766;37.672;2024-03-02T03:48:30;27.17;;;11.80;;
61905;SDS011;47863;55.766;37.672;2024-03-02T03:50:56;30.33;;;12.77;;
61905;SDS011;47863;55.766;37.672;2024-03-02T03:53:22;22.23;;;10.80;;
61905;SDS011;47863;55.766;37.672;2024-03-02T03:55:48;30.10;;;12.48;;
61905;SDS011;47863;55.766;37.672;2024-03-02T03:58:14;25.17;;;11.02;;
61905;SDS011;47863;55.766;37.672;2024-03-02T04:00:41;30.63;;;12.63;;
61905;SDS011;47863;55.766;37.672;2024-03-02T04:03:07;32.70;;;13.95;;
61905;SDS011;47863;55.766;37.672;2024-03-02T04:05:33;32.25;;;13.50;;
61905;SDS011;47863;55.766;37.672;2024-03-02T04:07:59;26.70;;;11.55;;
61905;SDS011;47863;55.766;37.672;2024-03-02T04:10:25;26.88;;;12.75;;
61905;SDS011;47863;55.766;37.672;2024-03-02T04:12:51;26.55;;;11.88;;
61905;SDS011;47863;55.766;37.672;2024-03-02T04:15:16;25.55;;;12.25;;
61905;SDS011;47863;55.766;37.672;2024-03-02T04:17:44;28.20;;;12.57;;
61905;SDS011;47863;55.766;37.672;2024-03-02T04:20:09;21.60;;;11.27;;
61905;SDS011;47863;55.766;37.672;2024-03-02T04:22:37;29.70;;;13.25;;
61905;SDS011;47863;55.766;37.672;2024-03-02T04:25:03;28.52;;;13.48;;
61905;SDS011;47863;55.766;37.672;2024-03-02T04:27:32;33.20;;;14.35;;
61905;SDS011;47863;55.766;37.672;2024-03-02T04:29:58;29.88;;;13.20;;
61905;SDS011;47863;55.766;37.672;2024-03-02T04:32:25;47.47;;;19.88;;
61905;SDS011;47863;55.766;37.672;2024-03-02T04:34:52;21.20;;;10.70;;
61905;SDS011;47863;55.766;37.672;2024-03-02T04:37:17;34.83;;;14.48;;
61905;SDS011;47863;55.766;37.672;2024-03-02T04:39:43;25.35;;;12.20;;
61905;SDS011;47863;55.766;37.672;2024-03-02T04:42:09;30.80;;;13.57;;
61905;SDS011;47863;55.766;37.672;2024-03-02T04:44:34;29.05;;;13.40;;
61905;SDS011;47863;55.766;37.672;2024-03-02T04:47:00;30.77;;;13.75;;
61905;SDS011;47863;55.766;37.672;2024-03-02T04:49:25;23.65;;;12.40;;
61905;SDS011;47863;55.766;37.672;2024-03-02T04:51:51;34.53;;;14.82;;
61905;SDS011;47863;55.766;37.672;2024-03-02T04:54:17;39.97;;;17.65;;
61905;SDS011;47863;55.766;37.672;2024-03-02T04:56:42;44.20;;;20.25;;
61905;SDS011;47863;55.766;37.672;2024-03-02T04:59:15;41.35;;;18.52;;
61905;SDS011;47863;55.766;37.672;2024-03-02T05:01:42;34.45;;;17.83;;
61905;SDS011;47863;55.766;37.672;2024-03-02T05:04:08;37.83;;;19.05;;
61905;SDS011;47863;55.766;37.672;2024-03-02T05:06:35;72.72;;;34.60;;
61905;SDS011;47863;55.766;37.672;2024-03-02T05:09:01;71.38;;;35.55;;
61905;SDS011;47863;55.766;37.672;2024-03-02T05:11:27;46.95;;;23.77;;
61905;SDS011;47863;55.766;37.672;2024-03-02T05:14:05;38.50;;;20.92;;
61905;SDS011;47863;55.766;37.672;2024-03-02T05:16:37;56.90;;;26.42;;
61905;SDS011;47863;55.766;37.672;2024-03-02T05:19:07;65.15;;;31.35;;
61905;SDS011;47863;55.766;37.672;2024-03-02T05:21:33;53.38;;;25.02;;
61905;SDS011;47863;55.766;37.672;2024-03-02T05:23:59;51.00;;;25.50;;
61905;SDS011;47863;55.766;37.672;2024-03-02T05:26:25;40.63;;;21.73;;
61905;SDS011;47863;55.766;37.672;2024-03-02T05:28:51;55.65;;;26.83;;
61905;SDS011;47863;55.766;37.672;2024-03-02T05:31:16;44.17;;;18.77;;
61905;SDS011;47863;55.766;37.672;2024-03-02T05:33:42;57.58;;;27.92;;
61905;SDS011;47863;55.766;37.672;2024-03-02T05:36:09;50.70;;;24.13;;
61905;SDS011;47863;55.766;37.672;2024-03-02T05:38:34;46.10;;;23.05;;
61905;SDS011;47863;55.766;37.672;2024-03-02T05:41:00;45.47;;;22.63;;
61905;SDS011;47863;55.766;37.672;2024-03-02T05:43:26;71.30;;;32.53;;
61905;SDS011;47863;55.766;37.672;2024-03-02T05:45:52;63.30;;;29.48;;
61905;SDS011;47863;55.766;37.672;2024-03-02T05:48:17;70.93;;;30.52;;
61905;SDS011;47863;55.766;37.672;2024-03-02T05:50:43;84.43;;;36.28;;
61905;SDS011;47863;55.766;37.672;2024-03-02T05:53:09;63.55;;;28.85;;
61905;SDS011;47863;55.766;37.672;2024-03-02T05:55:34;77.40;;;34.92;;
61905;SDS011;47863;55.766;37.672;2024-03-02T05:58:00;44.90;;;24.77;;
61905;SDS011;47863;55.766;37.672;2024-03-02T06:02:57;70.25;;;30.60;;
61905;SDS011;47863;55.766;37.672;2024-03-02T06:05:23;50.80;;;26.40;;
61905;SDS011;47863;55.766;37.672;2024-03-02T06:07:49;41.60;;;21.10;;
61905;SDS011;47863;55.766;37.672;2024-03-02T06:10:15;49.58;;;22.63;;
61905;SDS011;47863;55.766;37.672;2024-03-02T06:12:41;57.70;;;26.92;;
61905;SDS011;47863;55.766;37.672;2024-03-02T06:15:07;45.17;;;22.88;;
61905;SDS011;47863;55.766;37.672;2024-03-02T06:17:34;40.53;;;20.75;;
61905;SDS011;47863;55.766;37.672;2024-03-02T06:20:01;57.67;;;25.15;;
61905;SDS011;47863;55.766;37.672;2024-03-02T06:22:27;39.70;;;18.92;;
61905;SDS011;47863;55.766;37.672;2024-03-02T06:24:53;45.05;;;21.00;;
61905;SDS011;47863;55.766;37.672;2024-03-02T06:27:18;45.92;;;21.65;;
61905;SDS011;47863;55.766;37.672;2024-03-02T06:29:44;46.20;;;21.23;;
61905;SDS011;47863;55.766;37.672;2024-03-02T06:32:10;43.03;;;20.88;;
61905;SDS011;47863;55.766;37.672;2024-03-02T06:34:36;56.15;;;23.95;;
61905;SDS011;47863;55.766;37.672;2024-03-02T06:37:01;42.70;;;19.38;;
61905;SDS011;47863;55.766;37.672;2024-03-02T06:39:27;49.95;;;23.52;;
61905;SDS011;47863;55.766;37.672;2024-03-02T06:41:53;38.80;;;18.50;;
61905;SDS011;47863;55.766;37.672;2024-03-02T06:44:19;32.30;;;17.42;;
61905;SDS011;47863;55.766;37.672;2024-03-02T06:46:44;46.63;;;22.50;;
61905;SDS011;47863;55.766;37.672;2024-03-02T06:49:10;37.80;;;19.30;;
61905;SDS011;47863;55.766;37.672;2024-03-02T06:51:36;46.67;;;20.00;;
61905;SDS011;47863;55.766;37.672;2024-03-02T06:54:01;43.08;;;18.73;;
61905;SDS011;47863;55.766;37.672;2024-03-02T06:56:27;41.60;;;19.70;;
61905;SDS011;47863;55.766;37.672;2024-03-02T06:58:53;42.95;;;18.75;;
61905;SDS011;47863;55.766;37.672;2024-03-02T07:01:18;52.35;;;24.23;;
61905;SDS011;47863;55.766;37.672;2024-03-02T07:03:45;41.50;;;17.88;;
61905;SDS011;47863;55.766;37.672;2024-03-02T07:06:11;46.30;;;21.65;;
61905;SDS011;47863;55.766;37.672;2024-03-02T07:08:37;32.38;;;15.05;;
61905;SDS011;47863;55.766;37.672;2024-03-02T07:11:02;34.22;;;17.75;;
61905;SDS011;47863;55.766;37.672;2024-03-02T07:13:28;40.13;;;18.75;;
61905;SDS011;47863;55.766;37.672;2024-03-02T07:15:54;40.65;;;19.65;;
61905;SDS011;47863;55.766;37.672;2024-03-02T07:18:31;48.08;;;21.73;;
61905;SDS011;47863;55.766;37.672;2024-03-02T07:20:57;45.83;;;19.70;;
61905;SDS011;47863;55.766;37.672;2024-03-02T07:23:26;48.80;;;23.35;;
61905;SDS011;47863;55.766;37.672;2024-03-02T07:25:52;50.53;;;22.80;;
61905;SDS011;47863;55.766;37.672;2024-03-02T07:28:24;52.75;;;25.55;;
61905;SDS011;47863;55.766;37.672;2024-03-02T07:31:00;45.05;;;21.98;;
61905;SDS011;47863;55.766;37.672;2024-03-02T07:33:29;34.03;;;18.70;;
61905;SDS011;47863;55.766;37.672;2024-03-02T07:35:56;44.65;;;20.48;;
61905;SDS011;47863;55.766;37.672;2024-03-02T07:38:24;54.83;;;24.02;;
61905;SDS011;47863;55.766;37.672;2024-03-02T07:40:50;35.90;;;17.63;;
61905;SDS011;47863;55.766;37.672;2024-03-02T07:43:19;53.95;;;23.95;;
61905;SDS011;47863;55.766;37.672;2024-03-02T07:45:45;51.80;;;20.30;;
61905;SDS011;47863;55.766;37.672;2024-03-02T07:48:11;31.27;;;14.52;;
61905;SDS011;47863;55.766;37.672;2024-03-02T07:50:37;41.50;;;17.85;;
61905;SDS011;47863;55.766;37.672;2024-03-02T07:53:07;36.40;;;16.77;;
61905;SDS011;47863;55.766;37.672;2024-03-02T07:55:33;50.08;;;21.05;;
61905;SDS011;47863;55.766;37.672;2024-03-02T07:57:59;41.55;;;19.65;;
61905;SDS011;47863;55.766;37.672;2024-03-02T08:00:26;52.58;;;22.55;;
61905;SDS011;47863;55.766;37.672;2024-03-02T08:02:52;42.10;;;20.33;;
61905;SDS011;47863;55.766;37.672;2024-03-02T08:05:18;37.35;;;17.90;;
61905;SDS011;47863;55.766;37.672;2024-03-02T08:07:44;30.73;;;15.57;;
61905;SDS011;47863;55.766;37.672;2024-03-02T08:10:11;46.28;;;20.42;;
61905;SDS011;47863;55.766;37.672;2024-03-02T08:12:36;28.80;;;14.48;;
61905;SDS011;47863;55.766;37.672;2024-03-02T08:15:02;41.10;;;19.88;;
61905;SDS011;47863;55.766;37.672;2024-03-02T08:17:29;26.05;;;13.88;;
61905;SDS011;47863;55.766;37.672;2024-03-02T08:19:55;40.10;;;20.25;;
61905;SDS011;47863;55.766;37.672;2024-03-02T08:22:22;40.95;;;19.60;;
61905;SDS011;47863;55.766;37.672;2024-03-02T08:24:48;33.67;;;17.42;;
61905;SDS011;47863;55.766;37.672;2024-03-02T08:27:13;43.22;;;20.52;;
61905;SDS011;47863;55.766;37.672;2024-03-02T08:29:40;45.97;;;21.30;;
61905;SDS011;47863;55.766;37.672;2024-03-02T08:32:06;39.38;;;17.92;;
61905;SDS011;47863;55.766;37.672;2024-03-02T08:34:32;44.50;;;20.00;;
61905;SDS011;47863;55.766;37.672;2024-03-02T08:37:03;38.15;;;18.42;;
61905;SDS011;47863;55.766;37.672;2024-03-02T08:39:29;40.95;;;20.95;;
61905;SDS011;47863;55.766;37.672;2024-03-02T08:41:54;35.08;;;17.92;;
61905;SDS011;47863;55.766;37.672;2024-03-02T08:44:20;31.00;;;16.40;;
61905;SDS011;47863;55.766;37.672;2024-03-02T08:46:46;26.83;;;13.13;;
61905;SDS011;47863;55.766;37.672;2024-03-02T08:49:12;40.05;;;21.08;;
61905;SDS011;47863;55.766;37.672;2024-03-02T08:51:38;45.97;;;22.15;;
61905;SDS011;47863;55.766;37.672;2024-03-02T08:54:04;43.05;;;21.10;;
61905;SDS011;47863;55.766;37.672;2024-03-02T08:56:30;34.13;;;17.95;;
61905;SDS011;47863;55.766;37.672;2024-03-02T08:58:56;35.05;;;21.05;;
61905;SDS011;47863;55.766;37.672;2024-03-02T09:01:22;37.60;;;19.58;;
61905;SDS011;47863;55.766;37.672;2024-03-02T09:03:48;39.78;;;21.15;;
61905;SDS011;47863;55.766;37.672;2024-03-02T09:06:17;35.03;;;19.52;;
61905;SDS011;47863;55.766;37.672;2024-03-02T09:08:43;34.13;;;17.20;;
61905;SDS011;47863;55.766;37.672;2024-03-02T09:11:09;34.38;;;17.98;;
61905;SDS011;47863;55.766;37.672;2024-03-02T09:13:36;33.30;;;16.50;;
61905;SDS011;47863;55.766;37.672;2024-03-02T09:16:02;38.03;;;18.30;;
61905;SDS011;47863;55.766;37.672;2024-03-02T09:18:29;31.25;;;16.58;;
61905;SDS011;47863;55.766;37.672;2024-03-02T09:20:54;35.38;;;18.40;;
61905;SDS011;47863;55.766;37.672;2024-03-02T09:23:20;33.85;;;18.02;;
61905;SDS011;47863;55.766;37.672;2024-03-02T09:25:46;36.88;;;17.88;;
61905;SDS011;47863;55.766;37.672;2024-03-02T09:28:12;32.63;;;16.88;;
61905;SDS011;47863;55.766;37.672;2024-03-02T09:30:37;41.95;;;20.80;;
61905;SDS011;47863;55.766;37.672;2024-03-02T09:33:03;42.35;;;20.77;;
61905;SDS011;47863;55.766;37.672;2024-03-02T09:35:29;38.13;;;19.35;;
61905;SDS011;47863;55.766;37.672;2024-03-02T09:37:55;30.27;;;18.20;;
61905;SDS011;47863;55.766;37.672;2024-03-02T09:40:21;24.20;;;13.65;;
61905;SDS011;47863;55.766;37.672;2024-03-02T09:42:47;33.58;;;17.67;;
61905;SDS011;47863;55.766;37.672;2024-03-02T09:45:26;31.20;;;16.25;;
61905;SDS011;47863;55.766;37.672;2024-03-02T09:47:52;33.88;;;16.30;;
61905;SDS011;47863;55.766;37.672;2024-03-02T09:50:17;34.35;;;14.23;;
61905;SDS011;47863;55.766;37.672;2024-03-02T09:52:43;30.77;;;15.15;;
61905;SDS011;47863;55.766;37.672;2024-03-02T09:55:13;30.27;;;15.57;;
61905;SDS011;47863;55.766;37.672;2024-03-02T09:57:41;32.13;;;15.27;;
61905;SDS011;47863;55.766;37.672;2024-03-02T10:00:07;40.50;;;17.65;;
61905;SDS011;47863;55.766;37.672;2024-03-02T10:02:34;34.47;;;17.10;;
61905;SDS011;47863;55.766;37.672;2024-03-02T10:04:59;32.92;;;15.55;;
61905;SDS011;47863;55.766;37.672;2024-03-02T10:07:25;38.97;;;18.63;;
61905;SDS011;47863;55.766;37.672;2024-03-02T10:09:50;32.35;;;17.25;;
61905;SDS011;47863;55.766;37.672;2024-03-02T10:12:18;27.75;;;14.45;;
61905;SDS011;47863;55.766;37.672;2024-03-02T10:14:44;37.55;;;16.33;;
61905;SDS011;47863;55.766;37.672;2024-03-02T10:17:11;29.45;;;14.60;;
61905;SDS011;47863;55.766;37.672;2024-03-02T10:19:37;31.67;;;16.23;;
61905;SDS011;47863;55.766;37.672;2024-03-02T10:22:05;29.50;;;14.82;;
61905;SDS011;47863;55.766;37.672;2024-03-02T10:24:41;26.10;;;12.63;;
61905;SDS011;47863;55.766;37.672;2024-03-02T10:27:17;27.65;;;13.40;;
61905;SDS011;47863;55.766;37.672;2024-03-02T10:29:47;31.70;;;15.38;;
61905;SDS011;47863;55.766;37.672;2024-03-02T10:32:12;26.40;;;13.13;;
61905;SDS011;47863;55.766;37.672;2024-03-02T10:34:42;22.67;;;13.27;;
61905;SDS011;47863;55.766;37.672;2024-03-02T10:37:10;27.40;;;13.73;;
61905;SDS011;47863;55.766;37.672;2024-03-02T10:39:37;30.20;;;14.32;;
61905;SDS011;47863;55.766;37.672;2024-03-02T10:42:07;24.95;;;12.38;;
61905;SDS011;47863;55.766;37.672;2024-03-02T10:44:34;32.88;;;14.18;;
61905;SDS011;47863;55.766;37.672;2024-03-02T10:47:04;32.80;;;16.52;;
61905;SDS011;47863;55.766;37.672;2024-03-02T10:49:31;33.30;;;16.77;;
61905;SDS011;47863;55.766;37.672;2024-03-02T10:51:58;34.95;;;16.05;;
61905;SDS011;47863;55.766;37.672;2024-03-02T10:54:24;31.83;;;15.45;;
61905;SDS011;47863;55.766;37.672;2024-03-02T10:56:55;30.63;;;12.93;;
61905;SDS011;47863;55.766;37.672;2024-03-02T10:59:34;35.17;;;16.13;;
61905;SDS011;47863;55.766;37.672;2024-03-02T11:02:01;29.58;;;13.45;;
61905;SDS011;47863;55.766;37.672;2024-03-02T11:04:28;31.55;;;14.77;;
61905;SDS011;47863;55.766;37.672;2024-03-02T11:07:04;25.38;;;11.43;;
61905;SDS011;47863;55.766;37.672;2024-03-02T11:09:36;23.48;;;11.93;;
61905;SDS011;47863;55.766;37.672;2024-03-02T11:14:59;23.55;;;12.13;;
61905;SDS011;47863;55.766;37.672;2024-03-02T11:17:25;28.70;;;13.52;;
61905;SDS011;47863;55.766;37.672;2024-03-02T11:19:52;21.85;;;10.13;;
61905;SDS011;47863;55.766;37.672;2024-03-02T11:22:18;25.33;;;11.88;;
61905;SDS011;47863;55.766;37.672;2024-03-02T11:24:51;23.85;;;11.77;;
61905;SDS011;47863;55.766;37.672;2024-03-02T11:30:56;23.48;;;11.68;;
61905;SDS011;47863;55.766;37.672;2024-03-02T11:33:00;20.48;;;9.73;;
61905;SDS011;47863;55.766;37.672;2024-03-02T11:35:32;29.02;;;12.75;;
61905;SDS011;47863;55.766;37.672;2024-03-02T11:37:58;24.83;;;11.80;;
61905;SDS011;47863;55.766;37.672;2024-03-02T11:40:24;29.17;;;14.10;;
61905;SDS011;47863;55.766;37.672;2024-03-02T11:42:50;30.63;;;13.63;;
61905;SDS011;47863;55.766;37.672;2024-03-02T11:45:17;27.27;;;12.82;;
61905;SDS011;47863;55.766;37.672;2024-03-02T11:47:50;26.83;;;15.30;;
61905;SDS011;47863;55.766;37.672;2024-03-02T11:50:25;28.75;;;13.13;;
61905;SDS011;47863;55.766;37.672;2024-03-02T11:53:14;27.65;;;13.80;;
61905;SDS011;47863;55.766;37.672;2024-03-02T11:55:40;26.05;;;13.10;;
61905;SDS011;47863;55.766;37.672;2024-03-02T11:58:06;25.92;;;13.15;;
61905;SDS011;47863;55.766;37.672;2024-03-02T12:00:32;26.15;;;12.35;;
61905;SDS011;47863;55.766;37.672;2024-03-02T12:03:03;21.50;;;11.68;;
61905;SDS011;47863;55.766;37.672;2024-03-02T12:05:30;29.10;;;12.77;;
61905;SDS011;47863;55.766;37.672;2024-03-02T12:07:57;31.35;;;15.07;;
61905;SDS011;47863;55.766;37.672;2024-03-02T12:10:23;29.23;;;15.00;;
61905;SDS011;47863;55.766;37.672;2024-03-02T12:13:00;31.90;;;15.57;;
61905;SDS011;47863;55.766;37.672;2024-03-02T12:15:26;35.88;;;16.90;;
61905;SDS011;47863;55.766;37.672;2024-03-02T12:17:56;18.85;;;10.48;;
61905;SDS011;47863;55.766;37.672;2024-03-02T12:20:23;29.83;;;15.57;;
61905;SDS011;47863;55.766;37.672;2024-03-02T12:22:50;35.22;;;14.80;;
61905;SDS011;47863;55.766;37.672;2024-03-02T12:25:20;28.98;;;13.80;;
61905;SDS011;47863;55.766;37.672;2024-03-02T12:27:46;23.60;;;11.55;;
61905;SDS011;47863;55.766;37.672;2024-03-02T12:30:15;29.48;;;13.82;;
61905;SDS011;47863;55.766;37.672;2024-03-02T12:32:42;33.50;;;16.08;;
61905;SDS011;47863;55.766;37.672;2024-03-02T12:35:08;31.63;;;14.93;;
61905;SDS011;47863;55.766;37.672;2024-03-02T12:37:41;22.20;;;11.48;;
61905;SDS011;47863;55.766;37.672;2024-03-02T12:40:10;28.08;;;13.82;;
61905;SDS011;47863;55.766;37.672;2024-03-02T12:42:37;29.70;;;14.88;;
61905;SDS011;47863;55.766;37.672;2024-03-02T12:45:03;29.75;;;13.30;;
61905;SDS011;47863;55.766;37.672;2024-03-02T12:47:30;19.67;;;12.02;;
61905;SDS011;47863;55.766;37.672;2024-03-02T12:49:55;23.02;;;11.77;;
61905;SDS011;47863;55.766;37.672;2024-03-02T12:52:22;30.70;;;14.50;;
61905;SDS011;47863;55.766;37.672;2024-03-02T12:54:48;29.80;;;13.75;;
61905;SDS011;47863;55.766;37.672;2024-03-02T12:57:18;31.27;;;14.07;;
61905;SDS011;47863;55.766;37.672;2024-03-02T12:59:46;24.23;;;11.55;;
61905;SDS011;47863;55.766;37.672;2024-03-02T13:02:19;31.45;;;14.02;;
61905;SDS011;47863;55.766;37.672;2024-03-02T13:04:50;32.05;;;13.48;;
61905;SDS011;47863;55.766;37.672;2024-03-02T13:07:18;22.60;;;10.80;;
61905;SDS011;47863;55.766;37.672;2024-03-02T13:09:45;22.83;;;11.13;;
61905;SDS011;47863;55.766;37.672;2024-03-02T13:12:11;17.23;;;8.88;;
61905;SDS011;47863;55.766;37.672;2024-03-02T13:14:37;19.45;;;8.93;;
61905;SDS011;47863;55.766;37.672;2024-03-02T13:17:02;23.67;;;11.35;;
61905;SDS011;47863;55.766;37.672;2024-03-02T13:19:31;25.92;;;11.43;;
61905;SDS011;47863;55.766;37.672;2024-03-02T13:21:57;20.80;;;9.93;;
61905;SDS011;47863;55.766;37.672;2024-03-02T13:24:23;22.10;;;11.20;;
61905;SDS011;47863;55.766;37.672;2024-03-02T13:26:54;20.85;;;10.18;;
61905;SDS011;47863;55.766;37.672;2024-03-02T13:29:22;23.95;;;11.38;;
61905;SDS011;47863;55.766;37.672;2024-03-02T13:31:48;18.17;;;9.52;;
61905;SDS011;47863;55.766;37.672;2024-03-02T13:34:15;25.75;;;11.50;;
61905;SDS011;47863;55.766;37.672;2024-03-02T13:36:41;19.75;;;10.23;;
61905;SDS011;47863;55.766;37.672;2024-03-02T13:39:06;26.40;;;12.75;;
61905;SDS011;47863;55.766;37.672;2024-03-02T13:41:35;20.10;;;9.85;;
61905;SDS011;47863;55.766;37.672;2024-03-02T13:44:02;25.05;;;11.85;;
61905;SDS011;47863;55.766;37.672;2024-03-02T13:46:28;17.33;;;9.65;;
61905;SDS011;47863;55.766;37.672;2024-03-02T13:48:54;26.52;;;12.52;;
61905;SDS011;47863;55.766;37.672;2024-03-02T13:51:20;22.58;;;10.35;;
61905;SDS011;47863;55.766;37.672;2024-03-02T13:53:46;29.45;;;11.52;;
61905;SDS011;47863;55.766;37.672;2024-03-02T13:56:11;25.10;;;11.27;;
61905;SDS011;47863;55.766;37.672;2024-03-02T13:58:37;18.95;;;8.85;;
61905;SDS011;47863;55.766;37.672;2024-03-02T14:01:03;19.02;;;9.25;;
61905;SDS011;47863;55.766;37.672;2024-03-02T14:03:30;25.63;;;11.10;;
61905;SDS011;47863;55.766;37.672;2024-03-02T14:05:56;19.10;;;9.75;;
61905;SDS011;47863;55.766;37.672;2024-03-02T14:08:22;26.17;;;12.65;;
61905;SDS011;47863;55.766;37.672;2024-03-02T14:10:48;18.90;;;8.98;;
61905;SDS011;47863;55.766;37.672;2024-03-02T14:13:14;18.67;;;9.60;;
61905;SDS011;47863;55.766;37.672;2024-03-02T14:15:41;24.75;;;10.68;;
61905;SDS011;47863;55.766;37.672;2024-03-02T14:18:06;19.65;;;8.73;;
61905;SDS011;47863;55.766;37.672;2024-03-02T14:20:35;17.70;;;8.55;;
61905;SDS011;47863;55.766;37.672;2024-03-02T14:23:00;32.67;;;13.00;;